createdAt,value
2022-12-23T00:01:26.686Z,88.61
2022-12-23T00:03:56.631Z,88.22
2022-12-23T00:06:23.181Z,88.33
2022-12-23T00:08:49.706Z,88.56
2022-12-23T00:11:19.117Z,88.51
2022-12-23T00:14:04.656Z,88.27
2022-12-23T00:16:31.369Z,88.43
2022-12-23T00:18:57.894Z,88.87
2022-12-23T00:21:24.407Z,89.11
2022-12-23T00:23:51.805Z,88.78
2022-12-23T00:26:24.525Z,89.84
2022-12-23T00:28:51.506Z,89.16
2022-12-23T00:31:19.194Z,89.79
2022-12-23T00:33:48.979Z,90.18
2022-12-23T00:36:18.417Z,89.38
2022-12-23T00:39:04.581Z,89.32
2022-12-23T00:41:50.198Z,89.93
2022-12-23T00:44:16.980Z,90.09
2022-12-23T00:46:43.643Z,88.96
2022-12-23T00:49:31.494Z,89.13
2022-12-23T00:51:58.735Z,89.07
2022-12-23T00:54:25.351Z,89.31
2022-12-23T00:56:51.869Z,89.15
2022-12-23T00:59:18.454Z,88.77
2022-12-23T01:02:03.558Z,89.07
2022-12-23T01:04:48.895Z,88.81
2022-12-23T01:07:15.482Z,89.04
2022-12-23T01:09:41.982Z,90.05
2022-12-23T01:12:08.714Z,89.95
2022-12-23T01:14:35.929Z,89.46
2022-12-23T01:17:02.939Z,89.50
2022-12-23T01:19:29.511Z,89.79
2022-12-23T01:21:56.166Z,89.57
2022-12-23T01:24:22.956Z,89.46
2022-12-23T01:26:49.534Z,89.35
2022-12-23T01:29:16.136Z,90.51
2022-12-23T01:31:42.711Z,89.64
2022-12-23T01:34:10.645Z,89.30
2022-12-23T01:36:37.230Z,90.01
2022-12-23T01:39:04.433Z,89.65
2022-12-23T01:41:51.214Z,89.50
2022-12-23T01:44:49.253Z,90.23
2022-12-23T01:47:34.194Z,90.11
2022-12-23T01:50:15.314Z,90.23
2022-12-23T01:52:49.666Z,90.32
2022-12-23T01:55:20.963Z,90.44
2022-12-23T01:57:48.521Z,90.34
2022-12-23T02:00:34.371Z,90.17
2022-12-23T02:03:19.464Z,90.77
2022-12-23T02:05:47.467Z,90.58
2022-12-23T02:08:50.821Z,90.36
2022-12-23T02:11:34.441Z,90.86
2022-12-23T02:14:22.398Z,90.68
2022-12-23T02:17:00.582Z,91.08
2022-12-23T02:20:05.664Z,91.09
2022-12-23T02:23:10.160Z,91.41
2022-12-23T02:25:54.534Z,91.61
2022-12-23T02:28:55.520Z,90.66
2022-12-23T02:31:59.660Z,90.59
2022-12-23T02:34:54.704Z,90.93
2022-12-23T02:37:30.072Z,91.85
2022-12-23T02:40:24.467Z,91.46
2022-12-23T02:43:19.326Z,91.13
2022-12-23T02:45:55.229Z,91.35
2022-12-23T02:48:37.422Z,91.64
2022-12-23T02:51:07.940Z,91.09
2022-12-23T02:53:38.420Z,91.59
2022-12-23T02:56:08.804Z,91.06
2022-12-23T02:58:42.214Z,90.94
2022-12-23T03:01:11.393Z,90.82
2022-12-23T03:03:40.139Z,90.98
2022-12-23T03:06:18.104Z,91.07
2022-12-23T03:08:45.705Z,90.66
2022-12-23T03:11:15.544Z,90.37
2022-12-23T03:14:18.728Z,90.26
2022-12-23T03:16:53.781Z,90.84
2022-12-23T03:19:34.007Z,90.57
2022-12-23T03:22:25.930Z,90.34
2022-12-23T03:24:55.541Z,90.53
2022-12-23T03:27:36.477Z,90.35
2022-12-23T03:30:08.449Z,90.83
2022-12-23T03:32:44.027Z,90.97
2022-12-23T03:35:16.182Z,91.15
2022-12-23T03:37:45.783Z,90.32
2022-12-23T03:40:19.716Z,90.53
2022-12-23T03:42:51.581Z,91.26
2022-12-23T03:45:38.645Z,90.83
2022-12-23T03:48:13.829Z,90.89
2022-12-23T03:50:43.052Z,90.80
2022-12-23T03:53:17.035Z,91.00
2022-12-23T03:55:59.265Z,91.20
2022-12-23T03:58:39.727Z,91.31
2022-12-23T04:01:37.223Z,91.27
2022-12-23T04:04:11.393Z,90.77
2022-12-23T04:06:51.871Z,91.09
2022-12-23T04:09:22.371Z,90.28
2022-12-23T04:11:49.734Z,90.20
2022-12-23T04:14:21.086Z,90.74
2022-12-23T04:16:49.732Z,90.63
2022-12-23T04:19:16.543Z,90.92
2022-12-23T04:21:43.041Z,91.09
2022-12-23T04:24:09.576Z,91.28
2022-12-23T04:26:36.119Z,91.40
2022-12-23T04:29:02.740Z,90.35
2022-12-23T04:31:29.318Z,91.11
2022-12-23T04:33:55.821Z,90.27
2022-12-23T04:36:22.328Z,91.54
2022-12-23T04:38:49.067Z,90.67
2022-12-23T04:41:15.696Z,91.24
2022-12-23T04:43:42.597Z,91.01
2022-12-23T04:46:10.207Z,90.99
2022-12-23T04:48:36.786Z,91.54
2022-12-23T04:51:03.784Z,91.00
2022-12-23T04:53:30.306Z,90.95
2022-12-23T04:55:56.851Z,90.92
2022-12-23T04:58:25.104Z,91.23
2022-12-23T05:01:02.088Z,90.80
2022-12-23T05:03:29.031Z,90.98
2022-12-23T05:05:55.618Z,91.17
2022-12-23T05:08:22.572Z,91.10
2022-12-23T05:10:49.222Z,91.38
2022-12-23T05:13:15.911Z,91.43
2022-12-23T05:15:46.076Z,91.40
2022-12-23T05:18:12.972Z,91.29
2022-12-23T05:20:40.212Z,91.67
2022-12-23T05:23:06.978Z,91.97
2022-12-23T05:25:35.222Z,91.13
2022-12-23T05:28:02.510Z,91.34
2022-12-23T05:30:29.714Z,90.94
2022-12-23T05:32:57.160Z,91.48
2022-12-23T05:35:25.540Z,91.39
2022-12-23T05:37:52.741Z,91.23
2022-12-23T05:40:23.648Z,91.54
2022-12-23T05:42:51.474Z,91.98
2022-12-23T05:45:18.148Z,92.21
2022-12-23T05:47:44.685Z,91.48
2022-12-23T05:50:11.886Z,91.32
2022-12-23T05:52:38.631Z,91.30
2022-12-23T05:55:06.055Z,91.18
2022-12-23T05:57:32.686Z,91.37
2022-12-23T05:59:59.299Z,91.54
2022-12-23T06:02:25.882Z,91.95
2022-12-23T06:04:52.510Z,91.23
2022-12-23T06:07:18.990Z,91.35
2022-12-23T06:09:45.629Z,91.55
2022-12-23T06:12:12.323Z,91.59
2022-12-23T06:14:38.921Z,91.97
2022-12-23T06:17:05.543Z,91.57
2022-12-23T06:19:32.057Z,91.43
2022-12-23T06:21:58.798Z,91.67
2022-12-23T06:24:25.387Z,91.64
2022-12-23T06:26:56.691Z,91.79
2022-12-23T06:29:24.322Z,91.79
2022-12-23T06:31:51.021Z,91.56
2022-12-23T06:34:18.053Z,91.74
2022-12-23T06:36:44.651Z,92.03
2022-12-23T06:39:11.599Z,92.36
2022-12-23T06:41:38.309Z,92.23
2022-12-23T06:44:05.382Z,92.27
2022-12-23T06:46:32.025Z,91.38
2022-12-23T06:48:58.632Z,92.22
2022-12-23T06:51:25.095Z,92.16
2022-12-23T06:53:51.714Z,91.66
2022-12-23T06:56:18.809Z,91.87
2022-12-23T06:58:45.454Z,92.51
2022-12-23T07:01:14.954Z,91.70
2022-12-23T07:03:41.701Z,91.91
2022-12-23T07:06:08.267Z,92.35
2022-12-23T07:08:34.859Z,92.36
2022-12-23T07:11:03.496Z,92.16
2022-12-23T07:13:31.667Z,91.71
2022-12-23T07:15:58.811Z,91.83
2022-12-23T07:18:26.221Z,91.83
2022-12-23T07:20:53.071Z,92.63
2022-12-23T07:23:19.619Z,91.93
2022-12-23T07:25:46.175Z,91.85
2022-12-23T07:28:12.679Z,91.90
2022-12-23T07:30:39.355Z,92.07
2022-12-23T07:33:06.000Z,91.92
2022-12-23T07:35:32.784Z,91.69
2022-12-23T07:37:59.428Z,92.09
2022-12-23T07:40:26.626Z,92.29
2022-12-23T07:42:58.084Z,92.59
2022-12-23T07:45:26.093Z,92.23
2022-12-23T07:47:56.111Z,92.71
2022-12-23T07:50:23.033Z,93.24
2022-12-23T07:52:49.576Z,93.33
2022-12-23T07:55:16.337Z,92.81
2022-12-23T07:57:42.938Z,92.88
2022-12-23T08:00:11.816Z,92.88
2022-12-23T08:02:38.419Z,92.83
2022-12-23T08:05:08.716Z,92.61
2022-12-23T08:07:35.608Z,92.69
2022-12-23T08:10:02.989Z,92.17
2022-12-23T08:12:29.720Z,92.59
2022-12-23T08:14:56.323Z,92.53
2022-12-23T08:17:26.350Z,92.35
2022-12-23T08:19:53.451Z,92.17
2022-12-23T08:22:20.174Z,91.67
2022-12-23T08:24:46.768Z,91.66
2022-12-23T08:27:17.107Z,91.51
2022-12-23T08:29:43.657Z,91.59
2022-12-23T08:32:10.295Z,91.13
2022-12-23T08:34:36.846Z,91.16
2022-12-23T08:37:03.442Z,91.17
2022-12-23T08:39:30.020Z,90.70
2022-12-23T08:41:56.626Z,91.28
2022-12-23T08:44:23.294Z,90.99
2022-12-23T08:46:50.020Z,90.61
2022-12-23T08:49:16.579Z,90.66
2022-12-23T08:51:49.092Z,90.35
2022-12-23T08:54:15.951Z,90.19
2022-12-23T08:56:42.614Z,90.57
2022-12-23T08:59:18.988Z,90.14
2022-12-23T09:01:47.348Z,90.16
2022-12-23T09:04:16.242Z,89.94
2022-12-23T09:06:43.765Z,89.94
2022-12-23T09:09:13.044Z,89.81
2022-12-23T09:11:39.868Z,89.82
2022-12-23T09:14:08.670Z,89.63
2022-12-23T09:16:35.810Z,89.45
2022-12-23T09:19:02.930Z,89.79
2022-12-23T09:21:29.508Z,89.64
2022-12-23T09:23:56.115Z,89.75
2022-12-23T09:26:25.686Z,89.59
2022-12-23T09:28:52.935Z,89.46
2022-12-23T09:31:20.617Z,89.27
2022-12-23T09:33:49.195Z,89.20
2022-12-23T09:36:16.679Z,89.16
2022-12-23T09:38:43.287Z,89.26
2022-12-23T09:41:35.564Z,88.60
2022-12-23T09:44:08.005Z,88.88
2022-12-23T09:46:38.392Z,89.08
2022-12-23T09:49:11.678Z,88.40
2022-12-23T09:51:38.559Z,89.27
2022-12-23T09:54:19.059Z,88.57
2022-12-23T09:56:53.235Z,88.40
2022-12-23T09:59:44.717Z,88.22
2022-12-23T10:02:23.507Z,88.20
2022-12-23T10:05:02.968Z,88.39
2022-12-23T10:07:52.501Z,87.94
2022-12-23T10:10:37.211Z,88.24
2022-12-23T10:13:07.223Z,88.82
2022-12-23T10:15:40.963Z,88.83
2022-12-23T10:18:20.394Z,88.46
2022-12-23T10:20:52.900Z,88.83
2022-12-23T10:23:30.358Z,88.54
2022-12-23T10:25:57.057Z,88.48
2022-12-23T10:28:23.650Z,88.57
2022-12-23T10:31:38.555Z,88.60
2022-12-23T10:34:12.676Z,88.07
2022-12-23T10:36:52.087Z,88.00
2022-12-23T10:39:35.424Z,88.45
2022-12-23T10:42:10.707Z,88.73
2022-12-23T10:45:18.917Z,87.64
2022-12-23T10:48:00.102Z,88.25
2022-12-23T10:50:29.364Z,88.53
2022-12-23T10:52:59.658Z,88.89
2022-12-23T10:55:33.733Z,88.48
2022-12-23T10:58:14.496Z,88.38
2022-12-23T11:00:46.518Z,88.55
2022-12-23T11:03:19.288Z,88.76
2022-12-23T11:05:49.810Z,89.52
2022-12-23T11:08:16.629Z,88.94
2022-12-23T11:10:43.331Z,88.63
2022-12-23T11:13:09.869Z,88.45
2022-12-23T11:15:39.971Z,88.62
2022-12-23T11:18:06.443Z,88.42
2022-12-23T11:20:35.116Z,88.90
2022-12-23T11:23:03.720Z,89.58
2022-12-23T11:25:35.533Z,88.68
2022-12-23T11:28:22.326Z,88.24
2022-12-23T11:30:56.586Z,89.52
2022-12-23T11:33:28.434Z,89.27
2022-12-23T11:36:03.266Z,88.47
2022-12-23T11:38:30.815Z,88.52
2022-12-23T11:40:57.875Z,88.17
2022-12-23T11:43:26.708Z,88.36
2022-12-23T11:46:26.452Z,87.43
2022-12-23T11:49:13.763Z,88.33
2022-12-23T11:51:43.965Z,88.17
2022-12-23T11:54:19.631Z,87.57
2022-12-23T11:56:52.929Z,89.12
2022-12-23T11:59:37.137Z,88.48
2022-12-23T12:02:12.856Z,88.24
2022-12-23T12:04:41.929Z,89.40
2022-12-23T12:07:13.545Z,89.26
2022-12-23T12:09:42.326Z,88.96
2022-12-23T12:12:17.173Z,88.15
2022-12-23T12:14:54.541Z,88.42
2022-12-23T12:17:27.983Z,89.44
2022-12-23T12:20:18.795Z,88.94
2022-12-23T12:22:54.713Z,88.90
2022-12-23T12:25:33.939Z,88.69
2022-12-23T12:28:07.133Z,88.31
2022-12-23T12:30:40.165Z,88.66
2022-12-23T12:33:23.220Z,87.84
2022-12-23T12:36:03.371Z,88.32
2022-12-23T12:38:34.787Z,88.56
2022-12-23T12:41:16.082Z,87.54
2022-12-23T12:43:52.683Z,88.29
2022-12-23T12:46:32.671Z,87.80
2022-12-23T12:49:24.951Z,87.80
2022-12-23T12:51:58.856Z,88.06
2022-12-23T12:54:31.974Z,88.26
2022-12-23T12:56:59.996Z,88.05
2022-12-23T12:59:31.321Z,88.48
2022-12-23T13:02:22.855Z,88.51
2022-12-23T13:05:15.808Z,88.92
2022-12-23T13:07:55.841Z,88.35
2022-12-23T13:10:31.311Z,88.43
2022-12-23T13:13:04.500Z,88.47
2022-12-23T13:15:45.093Z,88.17
2022-12-23T13:18:37.160Z,87.92
2022-12-23T13:21:19.059Z,88.00
2022-12-23T13:24:03.435Z,88.27
2022-12-23T13:26:37.199Z,88.20
2022-12-23T13:29:57.813Z,87.78
2022-12-23T13:33:05.183Z,87.71
2022-12-23T13:35:50.155Z,87.58
2022-12-23T13:38:41.145Z,87.64
2022-12-23T13:41:21.895Z,87.41
2022-12-23T13:43:57.890Z,87.69
2022-12-23T13:46:38.440Z,88.15
2022-12-23T13:49:19.999Z,87.82
2022-12-23T13:51:57.059Z,87.84
2022-12-23T13:54:47.516Z,87.59
2022-12-23T13:57:46.696Z,87.68
2022-12-23T14:00:19.012Z,87.84
2022-12-23T14:02:52.010Z,87.77
2022-12-23T14:05:38.957Z,87.60
2022-12-23T14:08:31.597Z,87.48
2022-12-23T14:11:02.680Z,88.27
2022-12-23T14:13:40.801Z,87.98
2022-12-23T14:16:25.637Z,87.68
2022-12-23T14:19:14.237Z,88.08
2022-12-23T14:21:57.399Z,88.67
2022-12-23T14:24:48.457Z,88.33
2022-12-23T14:27:30.156Z,88.16
2022-12-23T14:30:15.563Z,88.80
2022-12-23T14:32:48.260Z,88.66
2022-12-23T14:35:36.950Z,88.66
2022-12-23T14:38:24.511Z,88.81
2022-12-23T14:40:54.618Z,89.04
2022-12-23T14:43:52.695Z,87.65
2022-12-23T14:46:37.211Z,88.13
2022-12-23T14:49:37.068Z,88.38
2022-12-23T14:51:51.055Z,88.52
2022-12-23T14:54:36.660Z,88.36
2022-12-23T14:57:16.936Z,88.63
2022-12-23T14:59:56.930Z,88.14
2022-12-23T15:02:35.348Z,88.21
2022-12-23T15:05:02.623Z,88.23
2022-12-23T15:07:34.797Z,88.27
2022-12-23T15:10:05.466Z,88.46
2022-12-23T15:12:37.252Z,88.12
2022-12-23T15:15:25.483Z,88.26
2022-12-23T15:18:11.601Z,87.33
2022-12-23T15:20:39.102Z,88.23
2022-12-23T15:23:14.951Z,88.37
2022-12-23T15:25:46.101Z,87.90
2022-12-23T15:28:19.118Z,87.90
2022-12-23T15:30:52.754Z,88.25
2022-12-23T15:36:11.642Z,88.25
2022-12-23T15:38:39.351Z,88.53
2022-12-23T15:41:15.614Z,87.99
2022-12-23T15:43:43.464Z,87.92
2022-12-23T15:46:16.933Z,87.64
2022-12-23T15:48:43.934Z,88.06
2022-12-23T15:54:29.543Z,88.79
2022-12-23T15:56:57.808Z,88.50
2022-12-23T15:59:29.303Z,88.83
2022-12-23T16:01:56.229Z,88.17
2022-12-23T16:04:27.012Z,88.55
2022-12-23T16:06:55.172Z,87.86
2022-12-23T16:09:21.698Z,88.10
2022-12-23T16:11:56.416Z,88.17
2022-12-23T16:14:50.173Z,87.89
2022-12-23T16:17:30.334Z,87.80
2022-12-23T16:20:20.490Z,87.68
2022-12-23T16:22:51.193Z,87.91
2022-12-23T16:25:23.060Z,88.25
2022-12-23T16:27:56.937Z,88.34
2022-12-23T16:30:34.033Z,87.75
2022-12-23T16:33:03.350Z,87.96
2022-12-23T16:35:30.048Z,87.74
2022-12-23T16:38:16.961Z,87.12
2022-12-23T16:40:49.519Z,87.86
2022-12-23T16:43:16.881Z,88.07
2022-12-23T16:45:45.043Z,88.38
2022-12-23T16:48:20.523Z,87.56
2022-12-23T16:50:48.631Z,87.77
2022-12-23T16:53:15.800Z,87.91
2022-12-23T16:55:50.226Z,87.69
2022-12-23T16:58:18.015Z,87.73
2022-12-23T17:00:44.954Z,87.67
2022-12-23T17:03:19.719Z,87.28
2022-12-23T17:05:47.518Z,87.93
2022-12-23T17:08:14.081Z,88.21
2022-12-23T17:10:42.462Z,88.23
2022-12-23T17:13:11.765Z,88.10
2022-12-23T17:15:38.364Z,88.12
2022-12-23T17:18:15.305Z,87.62
2022-12-23T17:20:44.828Z,88.15
2022-12-23T17:23:31.079Z,88.13
2022-12-23T17:25:57.995Z,88.50
2022-12-23T17:28:31.137Z,88.67
2022-12-23T17:30:58.944Z,88.34
2022-12-23T17:33:29.590Z,88.82
2022-12-23T17:35:56.392Z,88.64
2022-12-23T17:38:23.565Z,88.19
2022-12-23T17:40:50.774Z,88.91
2022-12-23T17:43:21.655Z,89.41
2022-12-23T17:45:48.413Z,89.58
2022-12-23T17:48:20.191Z,88.92
2022-12-23T17:50:48.058Z,88.69
2022-12-23T17:53:18.150Z,89.21
2022-12-23T17:55:45.209Z,88.99
2022-12-23T17:58:14.416Z,89.61
2022-12-23T18:00:41.416Z,89.48
2022-12-23T18:03:21.623Z,89.20
2022-12-23T18:05:48.294Z,89.16
2022-12-23T18:08:14.999Z,89.31
2022-12-23T18:10:41.821Z,89.47
2022-12-23T18:13:14.217Z,89.64
2022-12-23T18:15:43.363Z,89.62
2022-12-23T18:18:17.926Z,89.21
2022-12-23T18:20:51.444Z,89.59
2022-12-23T18:23:31.305Z,89.66
2022-12-23T18:25:58.779Z,89.53
2022-12-23T18:28:25.750Z,89.55
2022-12-23T18:30:54.763Z,89.02
2022-12-23T18:33:21.954Z,89.72
2022-12-23T18:35:49.560Z,89.92
2022-12-23T18:38:17.695Z,89.47
2022-12-23T18:40:44.943Z,89.34
2022-12-23T18:43:20.536Z,89.42
2022-12-23T18:45:52.446Z,89.49
2022-12-23T18:48:19.992Z,89.42
2022-12-23T18:50:46.794Z,89.66
2022-12-23T18:53:24.554Z,89.69
2022-12-23T18:55:52.905Z,89.42
2022-12-23T18:58:20.538Z,89.38
2022-12-23T19:00:48.637Z,89.61
2022-12-23T19:03:42.012Z,89.37
2022-12-23T19:06:11.889Z,88.97
2022-12-23T19:08:39.115Z,89.82
2022-12-23T19:11:18.430Z,89.24
2022-12-23T19:13:45.405Z,89.86
2022-12-23T19:16:17.473Z,89.31
2022-12-23T19:18:45.340Z,89.24
2022-12-23T19:21:12.602Z,89.52
2022-12-23T19:23:41.023Z,89.22
2022-12-23T19:26:10.410Z,89.23
2022-12-23T19:28:38.286Z,89.06
2022-12-23T19:31:14.794Z,89.63
2022-12-23T19:33:45.881Z,89.59
2022-12-23T19:36:19.608Z,89.66
2022-12-23T19:38:46.819Z,89.71
2022-12-23T19:41:13.440Z,89.34
2022-12-23T19:43:42.749Z,89.52
2022-12-23T19:46:15.575Z,88.97
2022-12-23T19:48:42.634Z,89.65
2022-12-23T19:51:12.869Z,89.52
2022-12-23T19:53:40.873Z,89.65
2022-12-23T19:56:12.026Z,89.46
2022-12-23T19:58:40.848Z,89.66
2022-12-23T20:01:16.639Z,89.22
2022-12-23T20:03:44.572Z,89.07
2022-12-23T20:06:17.275Z,89.30
2022-12-23T20:08:43.987Z,89.31
2022-12-23T20:11:19.597Z,89.53
2022-12-23T20:13:46.433Z,89.30
2022-12-23T20:16:13.669Z,89.14
2022-12-23T20:18:40.361Z,89.19
2022-12-23T20:21:07.018Z,88.76
2022-12-23T20:23:34.668Z,88.51
2022-12-23T20:26:01.321Z,89.12
2022-12-23T20:28:28.196Z,88.33
2022-12-23T20:31:01.161Z,88.42
2022-12-23T20:33:27.820Z,88.97
2022-12-23T20:35:54.410Z,89.09
2022-12-23T20:38:20.959Z,88.86
2022-12-23T20:40:47.444Z,88.75
2022-12-23T20:43:15.511Z,88.90
2022-12-23T20:45:43.921Z,89.16
2022-12-23T20:48:10.565Z,88.80
2022-12-23T20:50:41.333Z,88.53
2022-12-23T20:53:09.038Z,89.05
2022-12-23T20:55:35.527Z,88.65
2022-12-23T20:58:22.284Z,88.74
2022-12-23T21:00:49.210Z,88.47
2022-12-23T21:03:15.812Z,88.11
2022-12-23T21:05:42.489Z,88.02
2022-12-23T21:08:09.211Z,87.35
2022-12-23T21:10:35.806Z,87.27
2022-12-23T21:13:03.810Z,86.90
2022-12-23T21:15:33.534Z,87.03
2022-12-23T21:18:00.210Z,86.94
2022-12-23T21:20:26.716Z,86.24
2022-12-23T21:22:53.342Z,86.20
2022-12-23T21:25:19.993Z,86.57
2022-12-23T21:27:46.520Z,86.39
2022-12-23T21:30:13.355Z,86.68
2022-12-23T21:32:40.180Z,86.25
2022-12-23T21:35:07.227Z,86.73
2022-12-23T21:37:33.739Z,86.15
2022-12-23T21:40:00.201Z,86.90
2022-12-23T21:42:26.729Z,86.15
2022-12-23T21:44:53.370Z,86.69
2022-12-23T21:47:20.155Z,86.58
2022-12-23T21:49:47.032Z,86.26
2022-12-23T21:52:13.747Z,86.52
2022-12-23T21:54:40.323Z,86.37
2022-12-23T21:57:06.853Z,86.84
2022-12-23T21:59:35.424Z,86.79
2022-12-23T22:02:02.371Z,86.36
2022-12-23T22:04:28.917Z,86.54
2022-12-23T22:06:55.467Z,86.24
2022-12-23T22:09:22.109Z,86.51
2022-12-23T22:11:49.240Z,86.13
2022-12-23T22:14:17.854Z,86.09
2022-12-23T22:16:44.527Z,86.65
2022-12-23T22:19:12.031Z,86.14
2022-12-23T22:21:42.607Z,86.62
2022-12-23T22:24:09.541Z,86.09
2022-12-23T22:26:36.405Z,86.51
2022-12-23T22:29:06.014Z,86.50
2022-12-23T22:31:47.398Z,86.91
2022-12-23T22:34:19.971Z,86.90
2022-12-23T22:36:47.127Z,86.65
2022-12-23T22:39:20.113Z,87.06
2022-12-23T22:41:48.062Z,87.30
2022-12-23T22:44:15.071Z,86.95
2022-12-23T22:46:42.075Z,87.71
2022-12-23T22:49:12.176Z,87.44
2022-12-23T22:51:40.450Z,86.79
2022-12-23T22:54:07.667Z,86.66
2022-12-23T22:56:34.182Z,87.25
2022-12-23T22:59:00.737Z,86.47
2022-12-23T23:01:30.480Z,87.33
2022-12-23T23:03:58.858Z,87.02
2022-12-23T23:06:27.496Z,87.08
2022-12-23T23:08:55.060Z,86.90
2022-12-23T23:11:22.397Z,86.72
2022-12-23T23:13:49.143Z,86.87
2022-12-23T23:16:15.959Z,86.69
2022-12-23T23:18:42.766Z,86.51
2022-12-23T23:21:12.412Z,86.74
2022-12-23T23:23:38.969Z,86.38
2022-12-23T23:26:05.791Z,86.21
2022-12-23T23:28:32.354Z,86.36
2022-12-23T23:31:17.179Z,86.18
2022-12-23T23:33:45.460Z,86.26
2022-12-23T23:36:12.048Z,86.45
2022-12-23T23:38:38.653Z,86.05
2022-12-23T23:41:05.525Z,86.16
2022-12-23T23:43:32.240Z,85.53
2022-12-23T23:45:59.180Z,86.07
2022-12-23T23:48:25.743Z,85.46
2022-12-23T23:50:52.356Z,85.08
2022-12-23T23:53:18.851Z,85.49
2022-12-23T23:55:45.424Z,85.64
2022-12-23T23:58:12.341Z,85.72
